createdAt,value
2018-02-25T00:00:20.628Z,-0.90
2018-02-25T00:02:48.452Z,-0.90
2018-02-25T00:05:15.970Z,-1.00
2018-02-25T00:07:43.448Z,-1.00
2018-02-25T00:10:11.299Z,-1.00
2018-02-25T00:12:38.801Z,-1.00
2018-02-25T00:15:06.280Z,-1.00
2018-02-25T00:17:34.853Z,-1.10
2018-02-25T00:20:02.340Z,-1.10
2018-02-25T00:22:29.805Z,-1.10
2018-02-25T00:24:57.664Z,-1.10
2018-02-25T00:27:25.146Z,-1.10
2018-02-25T00:29:52.623Z,-1.10
2018-02-25T00:32:21.971Z,-1.20
2018-02-25T00:34:49.472Z,-1.20
2018-02-25T00:37:16.959Z,-1.10
2018-02-25T00:39:44.844Z,-1.10
2018-02-25T00:42:12.438Z,-1.10
2018-02-25T00:44:39.937Z,-1.10
2018-02-25T00:47:07.521Z,-1.10
2018-02-25T00:49:35.757Z,-1.10
2018-02-25T00:52:03.230Z,-1.10
2018-02-25T00:54:30.997Z,-1.20
2018-02-25T00:56:58.590Z,-1.20
2018-02-25T00:59:26.082Z,-1.20
2018-02-25T01:01:53.899Z,-1.20
2018-02-25T01:04:21.419Z,-1.40
2018-02-25T01:06:48.893Z,-1.40
2018-02-25T01:09:16.680Z,-1.30
2018-02-25T01:11:44.176Z,-1.40
2018-02-25T01:14:11.704Z,-1.50
2018-02-25T01:16:39.664Z,-1.50
2018-02-25T01:19:07.911Z,-1.50
2018-02-25T01:21:35.408Z,-1.50
2018-02-25T01:24:02.914Z,-1.40
2018-02-25T01:26:30.389Z,-1.50
2018-02-25T01:28:57.874Z,-1.50
2018-02-25T01:31:26.567Z,-1.50
2018-02-25T01:33:54.047Z,-1.50
2018-02-25T01:36:21.526Z,-1.50
2018-02-25T01:38:49.360Z,-1.50
2018-02-25T01:41:16.929Z,-1.50
2018-02-25T01:43:44.439Z,-1.60
2018-02-25T01:46:12.191Z,-1.60
2018-02-25T01:48:39.704Z,-1.60
2018-02-25T01:51:07.171Z,-1.60
2018-02-25T01:53:34.989Z,-1.60
2018-02-25T01:56:03.257Z,-1.70
2018-02-25T01:58:30.734Z,-1.70
2018-02-25T02:00:58.611Z,-1.70
2018-02-25T02:03:26.097Z,-1.80
2018-02-25T02:05:53.602Z,-1.80
2018-02-25T02:08:22.183Z,-1.70
2018-02-25T02:10:50.415Z,-1.80
2018-02-25T02:13:17.895Z,-1.80
2018-02-25T02:15:45.785Z,-1.70
2018-02-25T02:18:13.300Z,-1.80
2018-02-25T02:20:40.784Z,-1.80
2018-02-25T02:23:08.590Z,-1.80
2018-02-25T02:25:36.096Z,-1.80
2018-02-25T02:28:03.560Z,-1.80
2018-02-25T02:30:31.328Z,-1.80
2018-02-25T02:32:58.813Z,-1.90
2018-02-25T02:35:27.090Z,-1.90
2018-02-25T02:37:54.833Z,-1.90
2018-02-25T02:40:22.328Z,-2.00
2018-02-25T02:42:49.815Z,-2.00
2018-02-25T02:45:17.625Z,-2.00
2018-02-25T02:47:45.859Z,-2.00
2018-02-25T02:50:13.340Z,-2.00
2018-02-25T02:52:41.245Z,-2.00
2018-02-25T02:55:08.720Z,-1.90
2018-02-25T02:57:36.237Z,-2.00
2018-02-25T03:00:04.810Z,-2.10
2018-02-25T03:02:32.292Z,-2.20
2018-02-25T03:04:59.800Z,-2.10
2018-02-25T03:07:28.321Z,-2.10
2018-02-25T03:09:56.564Z,-2.10
2018-02-25T03:12:24.040Z,-2.20
2018-02-25T03:14:52.619Z,-2.10
2018-02-25T03:17:20.159Z,-2.20
2018-02-25T03:19:47.661Z,-2.10
2018-02-25T03:22:15.497Z,-2.10
2018-02-25T03:24:42.972Z,-2.20
2018-02-25T03:27:11.222Z,-2.20
2018-02-25T03:29:39.014Z,-2.20
2018-02-25T03:32:07.249Z,-2.30
2018-02-25T03:34:34.751Z,-2.40
2018-02-25T03:37:03.332Z,-2.30
2018-02-25T03:39:31.606Z,-2.30
2018-02-25T03:41:59.852Z,-2.30
2018-02-25T03:44:27.649Z,-2.40
2018-02-25T03:46:55.900Z,-2.30
2018-02-25T03:49:23.376Z,-2.30
2018-02-25T03:51:51.975Z,-2.40
2018-02-25T03:54:19.448Z,-2.40
2018-02-25T03:56:46.915Z,-2.50
2018-02-25T03:59:14.678Z,-2.40
2018-02-25T04:01:42.152Z,-2.50
2018-02-25T04:04:09.652Z,-2.50
2018-02-25T04:06:38.205Z,-2.40
2018-02-25T04:09:05.847Z,-2.40
2018-02-25T04:11:33.309Z,-2.40
2018-02-25T04:14:01.123Z,-2.40
2018-02-25T04:16:29.434Z,-2.50
2018-02-25T04:18:56.928Z,-2.50
2018-02-25T04:21:24.725Z,-2.50
2018-02-25T04:23:52.995Z,-2.70
2018-02-25T04:26:21.272Z,-2.70
2018-02-25T04:28:49.136Z,-2.70
2018-02-25T04:31:17.379Z,-2.60
2018-02-25T04:33:44.871Z,-2.60
2018-02-25T04:36:12.728Z,-2.60
2018-02-25T04:38:40.237Z,-2.50
2018-02-25T04:41:07.729Z,-2.60
2018-02-25T04:43:35.632Z,-2.60
2018-02-25T04:46:03.196Z,-2.60
2018-02-25T04:48:30.673Z,-2.60
2018-02-25T04:50:58.499Z,-2.70
2018-02-25T04:53:26.754Z,-2.70
2018-02-25T04:55:54.221Z,-2.70
2018-02-25T04:58:22.764Z,-2.80
2018-02-25T05:00:50.260Z,-2.80
2018-02-25T05:03:17.736Z,-2.70
2018-02-25T05:05:45.635Z,-2.80
2018-02-25T05:08:13.122Z,-2.70
2018-02-25T05:10:40.595Z,-2.70
2018-02-25T05:13:09.133Z,-2.90
2018-02-25T05:15:36.611Z,-2.90
2018-02-25T05:18:05.083Z,-2.80
2018-02-25T05:20:32.891Z,-2.80
2018-02-25T05:23:01.141Z,-3.00
2018-02-25T05:25:28.620Z,-3.00
2018-02-25T05:27:57.216Z,-3.00
2018-02-25T05:30:24.809Z,-3.00
2018-02-25T05:32:52.277Z,-3.00
2018-02-25T05:35:20.384Z,-2.90
2018-02-25T05:37:47.855Z,-3.00
2018-02-25T05:40:16.111Z,-3.00
2018-02-25T05:42:44.001Z,-3.10
2018-02-25T05:45:12.240Z,-3.10
2018-02-25T05:47:39.719Z,-3.10
2018-02-25T05:50:07.484Z,-3.00
2018-02-25T05:52:35.738Z,-3.10
2018-02-25T05:55:04.007Z,-3.10
2018-02-25T05:57:31.846Z,-3.10
2018-02-25T05:59:59.341Z,-3.10
2018-02-25T06:02:26.821Z,-3.10
2018-02-25T06:04:55.349Z,-3.10
2018-02-25T06:07:22.832Z,-3.10
2018-02-25T06:09:50.321Z,-3.10
2018-02-25T06:12:18.827Z,-3.10
2018-02-25T06:14:46.300Z,-3.10
2018-02-25T06:17:13.763Z,-3.10
2018-02-25T06:19:41.575Z,-3.10
2018-02-25T06:22:09.833Z,-3.20
2018-02-25T06:24:37.327Z,-3.20
2018-02-25T06:27:05.177Z,-3.20
2018-02-25T06:29:33.432Z,-3.10
2018-02-25T06:32:00.917Z,-3.10
2018-02-25T06:34:29.482Z,-3.10
2018-02-25T06:36:56.967Z,-3.10
2018-02-25T06:39:24.447Z,-3.00
2018-02-25T06:41:51.960Z,-3.00
2018-02-25T06:44:20.212Z,-3.00
2018-02-25T06:46:47.698Z,-3.00
2018-02-25T06:49:16.323Z,-3.00
2018-02-25T06:51:43.808Z,-3.00
2018-02-25T06:54:12.096Z,-3.00
2018-02-25T06:56:40.132Z,-3.00
2018-02-25T06:59:07.596Z,-3.00
2018-02-25T07:01:35.062Z,-3.00
2018-02-25T07:04:02.873Z,-3.00
2018-02-25T07:06:30.388Z,-3.00
2018-02-25T07:08:57.863Z,-3.00
2018-02-25T07:11:25.751Z,-3.00
2018-02-25T07:13:53.261Z,-3.10
2018-02-25T07:16:20.736Z,-3.00
2018-02-25T07:18:48.260Z,-3.00
2018-02-25T07:21:15.827Z,-2.70
2018-02-25T07:23:43.333Z,-2.40
2018-02-25T07:26:11.939Z,-1.90
2018-02-25T07:28:39.422Z,-1.80
2018-02-25T07:31:06.895Z,-1.80
2018-02-25T07:33:34.380Z,-2.10
2018-02-25T07:36:01.861Z,-2.00
2018-02-25T07:38:30.104Z,-1.70
2018-02-25T07:40:58.104Z,-1.80
2018-02-25T07:43:26.367Z,-1.50
2018-02-25T07:45:54.687Z,-1.50
2018-02-25T07:48:22.249Z,-1.50
2018-02-25T07:50:50.478Z,-0.10
2018-02-25T07:53:17.940Z,-0.20
2018-02-25T07:55:46.228Z,0.00
2018-02-25T07:58:13.755Z,-0.10
2018-02-25T08:00:41.221Z,1.40
2018-02-25T08:03:08.704Z,2.40
2018-02-25T08:05:36.183Z,1.50
2018-02-25T08:08:03.644Z,0.90
2018-02-25T08:10:31.159Z,2.20
2018-02-25T08:12:59.430Z,2.00
2018-02-25T08:15:27.718Z,2.10
2018-02-25T08:17:55.230Z,2.10
2018-02-25T08:20:22.770Z,3.30
2018-02-25T08:22:50.244Z,3.60
2018-02-25T08:25:18.463Z,1.90
2018-02-25T08:27:46.694Z,3.00
2018-02-25T08:30:14.251Z,2.90
2018-02-25T08:32:42.086Z,3.30
2018-02-25T08:35:09.570Z,3.80
2018-02-25T08:37:37.047Z,4.40
2018-02-25T08:40:04.833Z,5.30
2018-02-25T08:42:32.339Z,4.90
2018-02-25T08:44:59.799Z,4.60
2018-02-25T08:47:27.619Z,4.40
2018-02-25T08:49:55.852Z,5.00
2018-02-25T08:52:23.343Z,5.00
2018-02-25T08:54:51.943Z,2.60
2018-02-25T08:57:20.172Z,4.40
2018-02-25T08:59:47.650Z,4.30
2018-02-25T09:02:15.144Z,4.70
2018-02-25T09:04:42.656Z,5.40
2018-02-25T09:07:10.129Z,6.10
2018-02-25T09:09:38.719Z,6.10
2018-02-25T09:12:06.979Z,4.80
2018-02-25T09:14:34.462Z,4.80
2018-02-25T09:17:03.030Z,6.30
2018-02-25T09:19:30.503Z,6.30
2018-02-25T09:21:58.749Z,8.50
2018-02-25T09:24:26.265Z,8.50
2018-02-25T09:26:53.810Z,9.30
2018-02-25T09:29:21.384Z,6.70
2018-02-25T09:31:49.168Z,7.80
2018-02-25T09:34:16.710Z,8.20
2018-02-25T09:36:44.225Z,8.50
2018-02-25T09:39:12.009Z,8.70
2018-02-25T09:41:39.478Z,8.90
2018-02-25T09:44:07.728Z,8.30
2018-02-25T09:46:36.311Z,8.60
2018-02-25T09:49:04.558Z,8.00
2018-02-25T09:51:32.093Z,7.90
2018-02-25T09:53:59.903Z,6.60
2018-02-25T09:56:28.227Z,7.70
2018-02-25T09:58:55.696Z,7.70
2018-02-25T10:01:23.173Z,7.80
2018-02-25T10:03:50.628Z,7.70
2018-02-25T10:06:18.136Z,7.30
2018-02-25T10:08:45.629Z,6.70
2018-02-25T10:11:13.120Z,5.40
2018-02-25T10:13:41.453Z,7.10
2018-02-25T10:16:08.979Z,7.10
2018-02-25T10:18:36.508Z,7.40
2018-02-25T10:21:04.784Z,7.80
2018-02-25T10:23:32.336Z,7.80
2018-02-25T10:25:59.952Z,7.50
2018-02-25T10:28:27.459Z,7.50
2018-02-25T10:30:54.969Z,7.40
2018-02-25T10:33:22.499Z,5.30
2018-02-25T10:35:50.742Z,4.60
2018-02-25T10:38:18.529Z,4.60
2018-02-25T10:40:46.845Z,8.10
2018-02-25T10:43:14.315Z,8.10
2018-02-25T10:45:42.226Z,8.00
2018-02-25T10:48:09.962Z,9.00
2018-02-25T10:50:37.446Z,8.70
2018-02-25T10:53:06.032Z,8.70
2018-02-25T10:55:34.352Z,9.10
2018-02-25T10:58:01.872Z,9.10
2018-02-25T11:00:36.396Z,7.50
2018-02-25T11:03:04.671Z,8.30
2018-02-25T11:05:32.927Z,8.30
2018-02-25T11:08:00.443Z,8.30
2018-02-25T11:10:27.948Z,8.50
2018-02-25T11:12:55.425Z,6.50
2018-02-25T11:15:23.283Z,6.50
2018-02-25T11:17:50.771Z,6.10
2018-02-25T11:20:18.266Z,6.50
2018-02-25T11:22:46.164Z,6.20
2018-02-25T11:25:14.405Z,7.20
2018-02-25T11:27:42.701Z,7.30
2018-02-25T11:30:10.503Z,7.30
2018-02-25T11:32:37.993Z,6.50
2018-02-25T11:35:05.499Z,7.00
2018-02-25T11:37:34.116Z,7.40
2018-02-25T11:40:02.394Z,7.40
2018-02-25T11:42:29.870Z,7.50
2018-02-25T11:44:57.669Z,7.20
2018-02-25T11:47:25.943Z,5.30
2018-02-25T11:49:53.424Z,5.40
2018-02-25T11:52:21.163Z,6.50
2018-02-25T11:54:48.639Z,7.20
2018-02-25T11:57:16.130Z,6.60
2018-02-25T11:59:43.945Z,6.70
2018-02-25T12:02:12.265Z,6.30
2018-02-25T12:04:39.767Z,6.30
2018-02-25T12:07:07.641Z,6.90
2018-02-25T12:09:35.114Z,6.70
2018-02-25T12:12:02.612Z,5.90
2018-02-25T12:14:30.858Z,5.70
2018-02-25T12:16:58.316Z,5.70
2018-02-25T12:19:25.810Z,6.00
2018-02-25T12:21:53.613Z,5.60
2018-02-25T12:24:21.858Z,5.10
2018-02-25T12:26:49.347Z,5.10
2018-02-25T12:29:17.944Z,5.60
2018-02-25T12:31:46.207Z,5.20
2018-02-25T12:34:14.552Z,5.20
2018-02-25T12:36:42.056Z,5.10
2018-02-25T12:39:09.529Z,5.20
2018-02-25T12:41:37.008Z,5.00
2018-02-25T12:44:04.875Z,5.00
2018-02-25T12:46:32.351Z,5.00
2018-02-25T12:48:59.848Z,4.70
2018-02-25T12:51:28.315Z,4.90
2018-02-25T12:53:55.832Z,4.80
2018-02-25T12:56:23.303Z,4.00
2018-02-25T12:58:51.091Z,4.00
2018-02-25T13:01:19.339Z,4.10
2018-02-25T13:03:46.804Z,4.10
2018-02-25T13:06:14.599Z,4.10
2018-02-25T13:08:42.844Z,3.60
2018-02-25T13:11:10.328Z,3.60
2018-02-25T13:13:38.863Z,4.20
2018-02-25T13:16:06.417Z,4.20
2018-02-25T13:18:33.903Z,4.00
2018-02-25T13:21:01.735Z,4.20
2018-02-25T13:23:29.220Z,4.10
2018-02-25T13:25:56.699Z,3.90
2018-02-25T13:28:25.322Z,3.70
2018-02-25T13:30:53.515Z,3.70
2018-02-25T13:33:21.047Z,3.80
2018-02-25T13:35:48.787Z,3.70
2018-02-25T13:38:17.045Z,3.30
2018-02-25T13:40:44.533Z,3.20
2018-02-25T13:43:12.039Z,3.50
2018-02-25T13:45:39.510Z,3.60
2018-02-25T13:48:06.986Z,3.20
2018-02-25T13:50:35.245Z,3.20
2018-02-25T13:53:02.765Z,3.10
2018-02-25T13:55:30.323Z,3.30
2018-02-25T13:57:57.816Z,3.30
2018-02-25T14:00:25.351Z,3.30
2018-02-25T14:02:52.878Z,3.10
2018-02-25T14:05:21.117Z,3.10
2018-02-25T14:07:48.613Z,3.10
2018-02-25T14:10:16.831Z,2.80
2018-02-25T14:12:44.320Z,2.80
2018-02-25T14:15:12.568Z,2.60
2018-02-25T14:17:40.050Z,2.60
2018-02-25T14:20:08.314Z,2.70
2018-02-25T14:22:35.832Z,2.70
2018-02-25T14:25:03.315Z,2.70
2018-02-25T14:27:31.118Z,2.70
2018-02-25T14:29:59.356Z,2.60
2018-02-25T14:32:26.818Z,2.60
2018-02-25T14:34:54.605Z,2.60
2018-02-25T14:37:22.970Z,2.50
2018-02-25T14:39:51.117Z,2.30
2018-02-25T14:42:18.923Z,2.30
2018-02-25T14:44:47.194Z,2.30
2018-02-25T14:47:15.464Z,2.50
2018-02-25T14:49:43.740Z,2.40
2018-02-25T14:52:11.208Z,2.40
2018-02-25T14:54:39.463Z,2.30
2018-02-25T14:57:06.945Z,2.20
2018-02-25T14:59:34.492Z,2.10
2018-02-25T15:02:01.965Z,2.20
2018-02-25T15:04:30.529Z,2.20
2018-02-25T15:06:58.009Z,2.20
2018-02-25T15:09:26.275Z,2.10
2018-02-25T15:11:54.531Z,2.10
2018-02-25T15:14:22.005Z,2.10
2018-02-25T15:16:50.317Z,1.70
2018-02-25T15:19:17.787Z,1.70
2018-02-25T15:21:45.439Z,1.70
2018-02-25T15:24:12.908Z,1.70
2018-02-25T15:26:40.397Z,1.80
2018-02-25T15:29:07.889Z,1.70
2018-02-25T15:31:35.476Z,1.60
2018-02-25T15:34:03.292Z,1.80
2018-02-25T15:36:30.766Z,1.80
2018-02-25T15:38:58.258Z,1.70
2018-02-25T15:41:26.115Z,1.80
2018-02-25T15:43:53.601Z,1.80
2018-02-25T15:46:21.095Z,1.60
2018-02-25T15:48:49.336Z,1.40
2018-02-25T15:51:16.824Z,1.40
2018-02-25T15:53:45.139Z,1.30
2018-02-25T15:56:12.699Z,1.30
2018-02-25T15:58:40.169Z,1.40
2018-02-25T16:01:07.637Z,1.40
2018-02-25T16:03:35.440Z,1.40
2018-02-25T16:06:03.697Z,1.40
2018-02-25T16:08:31.163Z,1.40
2018-02-25T16:10:58.952Z,1.40
2018-02-25T16:13:27.303Z,1.40
2018-02-25T16:15:54.803Z,1.40
2018-02-25T16:18:22.295Z,1.20
2018-02-25T16:20:49.825Z,1.20
2018-02-25T16:23:17.289Z,1.20
2018-02-25T16:25:45.148Z,1.00
2018-02-25T16:28:12.617Z,1.10
2018-02-25T16:30:40.121Z,1.10
2018-02-25T16:33:07.988Z,1.10
2018-02-25T16:35:36.224Z,1.00
2018-02-25T16:38:03.700Z,1.00
2018-02-25T16:40:31.188Z,1.00
2018-02-25T16:42:58.672Z,0.90
2018-02-25T16:45:26.164Z,0.90
2018-02-25T16:47:53.975Z,0.80
2018-02-25T16:50:21.480Z,0.70
2018-02-25T16:52:48.962Z,0.70
2018-02-25T16:55:16.452Z,0.70
2018-02-25T16:57:43.931Z,0.60
2018-02-25T17:00:11.430Z,0.50
2018-02-25T17:02:39.221Z,0.50
2018-02-25T17:05:07.464Z,0.50
2018-02-25T17:07:35.086Z,0.40
2018-02-25T17:10:02.647Z,0.40
2018-02-25T17:12:30.121Z,0.30
2018-02-25T17:14:57.624Z,0.30
2018-02-25T17:17:25.927Z,0.30
2018-02-25T17:19:53.426Z,0.30
2018-02-25T17:22:20.907Z,0.10
2018-02-25T17:24:49.191Z,0.00
2018-02-25T17:27:17.426Z,-0.10
2018-02-25T17:29:44.917Z,-0.10
2018-02-25T17:32:12.442Z,-0.10
2018-02-25T17:34:39.935Z,-0.10
2018-02-25T17:37:07.448Z,-0.10
2018-02-25T17:39:35.362Z,-0.20
2018-02-25T17:42:03.605Z,-0.20
2018-02-25T17:44:31.080Z,-0.20
2018-02-25T17:46:58.857Z,-0.20
2018-02-25T17:49:27.101Z,-0.30
2018-02-25T17:51:54.567Z,-0.30
2018-02-25T17:54:22.353Z,-0.30
2018-02-25T17:56:50.779Z,-0.30
2018-02-25T17:59:18.266Z,-0.40
2018-02-25T18:01:46.077Z,-0.40
2018-02-25T18:04:13.576Z,-0.40
2018-02-25T18:06:41.068Z,-0.40
2018-02-25T18:09:09.811Z,-0.50
2018-02-25T18:11:37.278Z,-0.50
2018-02-25T18:14:04.749Z,-0.50
2018-02-25T18:16:32.748Z,-0.50
2018-02-25T18:19:00.986Z,-0.60
2018-02-25T18:21:28.468Z,-0.60
2018-02-25T18:23:55.957Z,-0.60
2018-02-25T18:26:23.417Z,-0.60
2018-02-25T18:28:50.888Z,-0.60
2018-02-25T18:31:18.729Z,-0.60
2018-02-25T18:33:46.265Z,-0.60
2018-02-25T18:36:13.746Z,-0.70
2018-02-25T18:38:41.508Z,-0.70
2018-02-25T18:41:09.432Z,-0.70
2018-02-25T18:43:36.919Z,-0.70
2018-02-25T18:46:05.271Z,-0.70
2018-02-25T18:48:32.779Z,-0.70
2018-02-25T18:51:00.284Z,-0.60
2018-02-25T18:53:28.048Z,-0.60
2018-02-25T18:55:55.543Z,-0.60
2018-02-25T18:58:23.843Z,-0.70
2018-02-25T19:00:51.606Z,-0.70
2018-02-25T19:03:19.123Z,-0.70
2018-02-25T19:05:46.611Z,-0.70
2018-02-25T19:08:14.126Z,-0.70
2018-02-25T19:10:41.608Z,-0.70
2018-02-25T19:13:09.879Z,-0.80
2018-02-25T19:15:38.124Z,-0.80
2018-02-25T19:18:05.624Z,-0.80
2018-02-25T19:20:33.124Z,-0.80
2018-02-25T19:23:00.673Z,-0.80
2018-02-25T19:25:28.181Z,-0.90
2018-02-25T19:27:56.420Z,-0.90
2018-02-25T19:30:23.943Z,-1.00
2018-02-25T19:32:51.409Z,-1.00
2018-02-25T19:35:18.928Z,-1.10
2018-02-25T19:37:52.028Z,-1.00
2018-02-25T19:40:25.935Z,-1.10
2018-02-25T19:42:54.522Z,-1.10
2018-02-25T19:45:22.773Z,-1.10
2018-02-25T19:47:50.239Z,-1.10
2018-02-25T19:50:18.823Z,-1.00
2018-02-25T19:52:47.121Z,-1.10
2018-02-25T19:55:15.425Z,-1.10
2018-02-25T19:57:42.936Z,-1.10
2018-02-25T20:00:10.419Z,-1.20
2018-02-25T20:02:38.644Z,-1.20
2018-02-25T20:05:06.457Z,-1.20
2018-02-25T20:07:33.937Z,-1.20
2018-02-25T20:10:01.439Z,-1.30
2018-02-25T20:12:29.777Z,-1.30
2018-02-25T20:14:57.280Z,-1.30
2018-02-25T20:17:25.549Z,-1.40
2018-02-25T20:19:53.037Z,-1.40
2018-02-25T20:22:20.526Z,-1.30
2018-02-25T20:24:48.033Z,-1.30
2018-02-25T20:27:16.559Z,-1.40
2018-02-25T20:29:44.037Z,-1.40
2018-02-25T20:32:11.521Z,-1.40
2018-02-25T20:34:40.260Z,-1.40
2018-02-25T20:37:07.752Z,-1.40
2018-02-25T20:39:35.244Z,-1.40
2018-02-25T20:42:03.141Z,-1.50
2018-02-25T20:44:30.728Z,-1.50
2018-02-25T20:46:58.203Z,-1.50
2018-02-25T20:49:25.698Z,-1.50
2018-02-25T20:51:53.179Z,-1.60
2018-02-25T20:54:20.662Z,-1.60
2018-02-25T20:56:48.484Z,-1.60
2018-02-25T20:59:15.952Z,-1.70
2018-02-25T21:01:43.490Z,-1.80
2018-02-25T21:04:11.352Z,-1.80
2018-02-25T21:06:39.598Z,-1.70
2018-02-25T21:09:07.060Z,-1.70
2018-02-25T21:11:34.561Z,-1.70
2018-02-25T21:14:02.053Z,-1.70
2018-02-25T21:16:29.526Z,-1.70
2018-02-25T21:18:57.027Z,-1.70
2018-02-25T21:21:24.523Z,-1.70
2018-02-25T21:23:52.012Z,-1.90
2018-02-25T21:26:20.284Z,-1.90
2018-02-25T21:28:47.781Z,-1.90
2018-02-25T21:31:15.284Z,-1.80
2018-02-25T21:33:43.400Z,-2.00
2018-02-25T21:36:10.981Z,-2.10
2018-02-25T21:38:38.455Z,-2.10
2018-02-25T21:41:05.932Z,-2.20
2018-02-25T21:43:33.460Z,-2.10
2018-02-25T21:46:01.011Z,-2.00
2018-02-25T21:48:28.853Z,-2.00
2018-02-25T21:50:56.442Z,-2.00
2018-02-25T21:53:23.996Z,-2.00
2018-02-25T21:55:57.398Z,-2.00
2018-02-25T21:58:30.379Z,-2.10
2018-02-25T22:01:03.833Z,-2.10
2018-02-25T22:03:36.933Z,-2.20
2018-02-25T22:06:05.251Z,-2.20
2018-02-25T22:08:32.755Z,-2.20
2018-02-25T22:11:00.252Z,-2.10
2018-02-25T22:13:27.984Z,-2.30
2018-02-25T22:15:56.401Z,-2.30
2018-02-25T22:18:23.958Z,-2.30
2018-02-25T22:20:51.448Z,-2.40
2018-02-25T22:23:18.965Z,-2.30
2018-02-25T22:25:46.443Z,-2.30
2018-02-25T22:28:13.952Z,-2.40
2018-02-25T22:30:41.547Z,-2.30
2018-02-25T22:33:09.044Z,-2.40
2018-02-25T22:35:37.132Z,-2.40
2018-02-25T22:38:04.613Z,-2.40
2018-02-25T22:40:32.193Z,-2.50
2018-02-25T22:42:59.697Z,-2.60
2018-02-25T22:45:27.186Z,-2.60
2018-02-25T22:47:54.672Z,-2.50
2018-02-25T22:50:22.520Z,-2.50
2018-02-25T22:52:50.003Z,-2.40
2018-02-25T22:55:17.498Z,-2.50
2018-02-25T22:57:45.107Z,-2.50
2018-02-25T23:00:12.591Z,-2.50
2018-02-25T23:02:40.056Z,-2.50
2018-02-25T23:05:07.997Z,-2.50
2018-02-25T23:07:35.478Z,-2.50
2018-02-25T23:10:02.940Z,-2.50
2018-02-25T23:12:30.699Z,-2.60
2018-02-25T23:14:58.166Z,-2.60
2018-02-25T23:17:25.666Z,-2.60
2018-02-25T23:19:53.507Z,-2.60
2018-02-25T23:22:21.822Z,-2.70
2018-02-25T23:24:49.312Z,-2.70
2018-02-25T23:27:17.148Z,-2.70
2018-02-25T23:29:44.625Z,-2.80
2018-02-25T23:32:12.125Z,-2.80
2018-02-25T23:34:40.776Z,-2.90
2018-02-25T23:37:08.314Z,-2.90
2018-02-25T23:39:35.800Z,-2.90
2018-02-25T23:42:03.590Z,-2.90
2018-02-25T23:44:31.866Z,-2.90
2018-02-25T23:47:00.128Z,-3.00
2018-02-25T23:49:28.151Z,-3.00
2018-02-25T23:51:55.672Z,-3.00
2018-02-25T23:54:23.180Z,-3.00
2018-02-25T23:56:51.002Z,-3.00
2018-02-25T23:59:18.479Z,-3.00
